createdAt,value
2023-01-30T00:00:33.996Z,34.58
2023-01-30T00:03:00.666Z,35.08
2023-01-30T00:05:27.040Z,33.25
2023-01-30T00:07:53.414Z,34.03
2023-01-30T00:10:20.165Z,32.40
2023-01-30T00:12:46.709Z,33.97
2023-01-30T00:15:13.089Z,33.55
2023-01-30T00:17:39.413Z,28.85
2023-01-30T00:20:07.285Z,34.97
2023-01-30T00:22:33.673Z,29.65
2023-01-30T00:25:00.164Z,32.47
2023-01-30T00:27:26.576Z,31.20
2023-01-30T00:30:02.451Z,30.33
2023-01-30T00:32:29.463Z,32.80
2023-01-30T00:34:55.840Z,30.88
2023-01-30T00:37:22.198Z,31.35
2023-01-30T00:39:48.535Z,36.03
2023-01-30T00:42:35.232Z,35.40
2023-01-30T00:45:20.382Z,31.95
2023-01-30T00:47:48.589Z,30.90
2023-01-30T00:50:15.391Z,33.70
2023-01-30T00:52:41.737Z,32.42
2023-01-30T00:55:08.374Z,34.03
2023-01-30T00:57:34.686Z,32.03
2023-01-30T01:00:01.143Z,32.55
2023-01-30T01:02:27.464Z,31.90
2023-01-30T01:04:53.774Z,32.40
2023-01-30T01:07:21.293Z,32.35
2023-01-30T01:09:47.761Z,33.78
2023-01-30T01:12:14.143Z,31.85
2023-01-30T01:14:40.506Z,36.03
2023-01-30T01:17:07.118Z,40.13
2023-01-30T01:19:35.269Z,36.63
2023-01-30T01:22:01.609Z,32.25
2023-01-30T01:24:27.921Z,36.42
2023-01-30T01:26:54.235Z,32.60
2023-01-30T01:29:20.686Z,31.02
2023-01-30T01:31:47.040Z,37.60
2023-01-30T01:34:13.454Z,33.08
2023-01-30T01:36:53.251Z,32.63
2023-01-30T01:39:20.532Z,33.75
2023-01-30T01:41:46.929Z,33.60
2023-01-30T01:44:14.293Z,34.35
2023-01-30T01:46:45.978Z,36.42
2023-01-30T01:49:19.600Z,34.90
2023-01-30T01:51:50.696Z,35.20
2023-01-30T01:54:20.823Z,34.15
2023-01-30T01:56:48.095Z,35.47
2023-01-30T01:59:22.688Z,33.95
2023-01-30T02:01:49.852Z,33.53
2023-01-30T02:04:36.319Z,32.85
2023-01-30T02:07:02.820Z,35.88
2023-01-30T02:09:29.155Z,35.03
2023-01-30T02:11:57.879Z,31.63
2023-01-30T02:14:24.683Z,31.67
2023-01-30T02:16:51.039Z,30.67
2023-01-30T02:19:37.087Z,30.90
2023-01-30T02:22:24.444Z,29.60
2023-01-30T02:25:11.963Z,33.63
2023-01-30T02:27:59.971Z,31.20
2023-01-30T02:30:54.161Z,33.53
2023-01-30T02:33:32.917Z,31.75
2023-01-30T02:36:08.277Z,32.13
2023-01-30T02:38:43.933Z,33.00
2023-01-30T02:41:13.090Z,28.50
2023-01-30T02:43:41.547Z,30.83
2023-01-30T02:46:10.529Z,30.15
2023-01-30T02:48:43.893Z,29.88
2023-01-30T02:51:16.624Z,33.40
2023-01-30T02:53:43.292Z,28.92
2023-01-30T02:56:09.662Z,30.55
2023-01-30T02:58:42.679Z,31.05
2023-01-30T03:01:28.525Z,30.38
2023-01-30T03:04:27.325Z,30.40
2023-01-30T03:07:16.990Z,32.72
2023-01-30T03:10:02.816Z,30.88
2023-01-30T03:12:41.034Z,31.33
2023-01-30T03:15:14.376Z,30.67
2023-01-30T03:17:42.495Z,30.08
2023-01-30T03:20:10.317Z,31.58
2023-01-30T03:22:36.725Z,29.05
2023-01-30T03:25:03.277Z,31.27
2023-01-30T03:27:30.277Z,33.17
2023-01-30T03:29:56.652Z,32.47
2023-01-30T03:32:23.007Z,30.95
2023-01-30T03:34:49.373Z,35.40
2023-01-30T03:37:15.773Z,30.80
2023-01-30T03:39:42.156Z,31.05
2023-01-30T03:42:08.593Z,31.40
2023-01-30T03:44:34.972Z,37.95
2023-01-30T03:47:01.335Z,31.25
2023-01-30T03:49:27.773Z,29.08
2023-01-30T03:51:54.147Z,29.63
2023-01-30T03:54:20.513Z,27.80
2023-01-30T03:56:46.890Z,30.98
2023-01-30T03:59:13.316Z,35.08
2023-01-30T04:01:39.715Z,31.55
2023-01-30T04:04:06.133Z,34.08
2023-01-30T04:06:32.606Z,30.95
2023-01-30T04:08:58.985Z,31.45
2023-01-30T04:11:25.354Z,28.25
2023-01-30T04:13:51.872Z,30.20
2023-01-30T04:16:23.764Z,32.67
2023-01-30T04:18:50.223Z,32.58
2023-01-30T04:21:16.840Z,33.92
2023-01-30T04:23:43.509Z,34.50
2023-01-30T04:26:10.331Z,32.80
2023-01-30T04:28:36.870Z,33.63
2023-01-30T04:31:03.956Z,32.20
2023-01-30T04:33:30.372Z,36.33
2023-01-30T04:35:58.681Z,34.58
2023-01-30T04:38:26.299Z,31.55
2023-01-30T04:40:54.155Z,33.83
2023-01-30T04:43:24.602Z,31.98
2023-01-30T04:45:51.693Z,34.50
2023-01-30T04:48:19.733Z,33.45
2023-01-30T04:50:48.822Z,35.75
2023-01-30T04:53:16.276Z,36.80
2023-01-30T04:55:42.619Z,32.85
2023-01-30T04:58:08.990Z,34.15
2023-01-30T05:00:35.402Z,35.85
2023-01-30T05:03:02.010Z,35.00
2023-01-30T05:05:28.473Z,36.08
2023-01-30T05:07:55.101Z,37.05
2023-01-30T05:10:21.631Z,35.53
2023-01-30T05:12:47.990Z,37.78
2023-01-30T05:15:14.467Z,33.00
2023-01-30T05:17:43.045Z,34.53
2023-01-30T05:20:10.757Z,36.38
2023-01-30T05:22:37.140Z,34.13
2023-01-30T05:25:03.738Z,34.58
2023-01-30T05:27:30.108Z,36.55
2023-01-30T05:29:56.444Z,35.42
2023-01-30T05:32:22.772Z,33.72
2023-01-30T05:34:49.693Z,36.60
2023-01-30T05:37:16.066Z,33.03
2023-01-30T05:39:42.434Z,35.53
2023-01-30T05:42:08.795Z,32.42
2023-01-30T05:44:35.165Z,31.02
2023-01-30T05:47:01.584Z,34.78
2023-01-30T05:49:27.969Z,32.88
2023-01-30T05:51:54.346Z,32.03
2023-01-30T05:54:20.709Z,30.98
2023-01-30T05:56:50.471Z,33.17
2023-01-30T05:59:18.520Z,30.05
2023-01-30T06:01:44.917Z,30.40
2023-01-30T06:04:11.387Z,31.58
2023-01-30T06:06:37.964Z,32.53
2023-01-30T06:09:04.667Z,32.20
2023-01-30T06:11:31.047Z,27.95
2023-01-30T06:13:57.441Z,28.58
2023-01-30T06:16:23.930Z,30.15
2023-01-30T06:18:50.287Z,27.70
2023-01-30T06:21:16.805Z,27.92
2023-01-30T06:23:43.603Z,29.65
2023-01-30T06:26:10.186Z,26.88
2023-01-30T06:28:36.817Z,27.70
2023-01-30T06:31:06.160Z,31.70
2023-01-30T06:33:32.885Z,27.70
2023-01-30T06:35:59.265Z,38.55
2023-01-30T06:38:26.241Z,28.85
2023-01-30T06:40:52.679Z,27.73
2023-01-30T06:43:19.086Z,26.83
2023-01-30T06:45:45.466Z,27.88
2023-01-30T06:48:11.867Z,27.08
2023-01-30T06:50:38.236Z,26.15
2023-01-30T06:53:06.454Z,26.35
2023-01-30T06:55:36.775Z,25.23
2023-01-30T06:58:05.226Z,24.30
2023-01-30T07:00:31.877Z,25.90
2023-01-30T07:02:58.831Z,24.33
2023-01-30T07:05:25.280Z,21.40
2023-01-30T07:07:51.790Z,24.75
2023-01-30T07:10:18.247Z,21.70
2023-01-30T07:12:45.975Z,22.50
2023-01-30T07:18:59.464Z,21.35
2023-01-30T07:21:27.140Z,20.50
2023-01-30T07:23:53.699Z,22.60
2023-01-30T07:26:20.139Z,19.65
2023-01-30T07:28:46.494Z,20.17
2023-01-30T07:31:12.922Z,21.83
2023-01-30T07:33:39.297Z,18.95
2023-01-30T07:36:05.841Z,20.80
2023-01-30T07:38:32.166Z,21.85
2023-01-30T07:40:58.701Z,20.15
2023-01-30T07:43:25.054Z,22.98
2023-01-30T07:45:51.453Z,22.50
2023-01-30T07:48:19.207Z,19.13
2023-01-30T07:50:46.254Z,22.63
2023-01-30T07:53:15.324Z,22.05
2023-01-30T07:55:42.373Z,22.15
2023-01-30T07:58:13.362Z,20.38
2023-01-30T08:00:39.774Z,20.90
2023-01-30T08:03:06.133Z,22.90
2023-01-30T08:05:32.550Z,22.60
2023-01-30T08:08:00.720Z,22.00
2023-01-30T08:10:27.178Z,23.65
2023-01-30T08:12:53.769Z,23.70
2023-01-30T08:15:21.933Z,24.38
2023-01-30T08:17:56.130Z,23.02
2023-01-30T08:20:22.633Z,22.95
2023-01-30T08:22:48.965Z,22.40
2023-01-30T08:25:15.396Z,21.92
2023-01-30T08:27:41.731Z,23.27
2023-01-30T08:30:09.359Z,21.70
2023-01-30T08:32:35.765Z,26.38
2023-01-30T08:35:02.144Z,22.90
2023-01-30T08:37:28.716Z,21.10
2023-01-30T08:39:55.071Z,18.08
2023-01-30T08:42:21.445Z,18.05
2023-01-30T08:44:47.826Z,20.17
2023-01-30T08:47:14.195Z,15.98
2023-01-30T08:49:40.589Z,16.13
2023-01-30T08:52:06.979Z,15.82
2023-01-30T08:54:33.446Z,12.85
2023-01-30T08:56:59.837Z,14.82
2023-01-30T08:59:26.204Z,13.88
2023-01-30T09:01:52.574Z,13.10
2023-01-30T09:04:19.001Z,12.00
2023-01-30T09:06:45.404Z,13.60
2023-01-30T09:09:11.751Z,15.30
2023-01-30T09:11:38.188Z,11.45
2023-01-30T09:14:04.579Z,10.18
2023-01-30T09:16:30.947Z,9.48
2023-01-30T09:18:57.303Z,10.60
2023-01-30T09:21:24.422Z,10.98
2023-01-30T09:23:50.783Z,9.82
2023-01-30T09:26:17.282Z,10.85
2023-01-30T09:28:43.667Z,10.70
2023-01-30T09:31:10.197Z,8.65
2023-01-30T09:33:36.634Z,11.48
2023-01-30T09:36:03.133Z,7.95
2023-01-30T09:38:29.529Z,8.10
2023-01-30T09:41:22.440Z,7.07
2023-01-30T09:44:32.796Z,7.22
2023-01-30T09:47:12.016Z,7.03
2023-01-30T09:49:53.161Z,7.32
2023-01-30T09:52:34.498Z,7.15
2023-01-30T09:55:21.867Z,7.00
2023-01-30T09:57:49.260Z,7.05
2023-01-30T10:00:22.432Z,7.30
2023-01-30T10:02:57.881Z,6.70
2023-01-30T10:05:33.628Z,5.75
2023-01-30T10:08:21.434Z,6.10
2023-01-30T10:11:00.887Z,5.43
2023-01-30T10:13:48.506Z,6.30
2023-01-30T10:16:23.688Z,4.55
2023-01-30T10:18:59.326Z,4.75
2023-01-30T10:22:10.077Z,5.68
2023-01-30T10:24:51.323Z,5.25
2023-01-30T10:27:18.080Z,5.53
2023-01-30T10:29:57.106Z,6.57
2023-01-30T10:32:31.692Z,4.95
2023-01-30T10:35:07.108Z,4.55
2023-01-30T10:37:40.906Z,4.25
2023-01-30T10:40:20.653Z,6.22
2023-01-30T10:43:29.908Z,4.10
2023-01-30T10:46:34.391Z,4.25
2023-01-30T10:49:09.128Z,3.53
2023-01-30T10:51:46.831Z,4.60
2023-01-30T10:54:19.743Z,4.40
2023-01-30T10:56:49.427Z,4.18
2023-01-30T10:59:30.581Z,5.60
2023-01-30T11:02:24.242Z,3.58
2023-01-30T11:04:59.246Z,4.40
2023-01-30T11:07:28.157Z,3.63
2023-01-30T11:09:54.637Z,4.50
2023-01-30T11:12:20.961Z,3.47
2023-01-30T11:14:59.970Z,4.55
2023-01-30T11:17:45.343Z,5.18
2023-01-30T11:20:16.598Z,4.68
2023-01-30T11:22:52.295Z,3.45
2023-01-30T11:25:22.008Z,2.97
2023-01-30T11:28:03.222Z,2.67
2023-01-30T11:30:33.770Z,3.65
2023-01-30T11:33:36.749Z,3.05
2023-01-30T11:36:09.646Z,2.22
2023-01-30T11:38:40.044Z,2.63
2023-01-30T11:41:09.076Z,2.65
2023-01-30T11:43:39.423Z,3.15
2023-01-30T11:46:07.805Z,2.63
2023-01-30T11:49:03.327Z,5.35
2023-01-30T11:51:23.857Z,2.90
2023-01-30T11:54:00.393Z,3.15
2023-01-30T11:56:30.812Z,2.40
2023-01-30T11:58:59.377Z,3.10
2023-01-30T12:01:28.261Z,2.42
2023-01-30T12:03:55.169Z,2.33
2023-01-30T12:06:30.009Z,3.20
2023-01-30T12:08:57.423Z,4.40
2023-01-30T12:11:29.395Z,3.65
2023-01-30T12:14:04.663Z,3.42
2023-01-30T12:16:51.253Z,2.20
2023-01-30T12:19:34.038Z,3.80
2023-01-30T12:22:09.347Z,4.78
2023-01-30T12:24:42.361Z,4.57
2023-01-30T12:27:15.574Z,2.45
2023-01-30T12:30:03.076Z,2.53
2023-01-30T12:32:33.517Z,2.05
2023-01-30T12:35:01.272Z,2.45
2023-01-30T12:37:34.156Z,2.75
2023-01-30T12:40:14.074Z,5.13
2023-01-30T12:43:00.571Z,3.83
2023-01-30T12:45:30.509Z,4.43
2023-01-30T12:48:26.004Z,3.42
2023-01-30T12:50:55.872Z,4.75
2023-01-30T12:53:31.058Z,2.47
2023-01-30T12:56:35.142Z,3.92
2023-01-30T12:59:09.960Z,4.67
2023-01-30T13:02:18.162Z,3.15
2023-01-30T13:05:04.590Z,4.07
2023-01-30T13:07:46.569Z,3.20
2023-01-30T13:10:23.748Z,5.38
2023-01-30T13:13:21.549Z,5.03
2023-01-30T13:15:58.333Z,5.95
2023-01-30T13:18:42.613Z,3.55
2023-01-30T13:24:30.037Z,4.28
2023-01-30T13:26:58.650Z,5.05
2023-01-30T13:29:31.526Z,3.63
2023-01-30T13:32:01.264Z,5.95
2023-01-30T13:34:34.122Z,6.60
2023-01-30T13:37:19.778Z,2.83
2023-01-30T13:40:09.275Z,3.03
2023-01-30T13:42:45.538Z,7.53
2023-01-30T13:45:30.083Z,5.72
2023-01-30T13:47:56.634Z,3.35
2023-01-30T13:50:44.740Z,6.15
2023-01-30T13:53:11.142Z,4.53
2023-01-30T13:55:45.860Z,7.22
2023-01-30T13:58:27.430Z,7.43
2023-01-30T14:00:55.367Z,6.13
2023-01-30T14:03:35.167Z,5.50
2023-01-30T14:06:04.404Z,6.53
2023-01-30T14:08:38.236Z,6.88
2023-01-30T14:11:04.758Z,5.53
2023-01-30T14:13:32.350Z,6.43
2023-01-30T14:16:01.684Z,6.72
2023-01-30T14:18:31.724Z,4.88
2023-01-30T14:21:16.633Z,9.32
2023-01-30T14:23:55.261Z,4.38
2023-01-30T14:26:52.422Z,7.72
2023-01-30T14:29:37.564Z,5.93
2023-01-30T14:32:13.486Z,5.35
2023-01-30T14:35:08.301Z,6.75
2023-01-30T14:40:21.775Z,6.60
2023-01-30T14:43:13.131Z,6.70
2023-01-30T14:45:48.424Z,5.68
2023-01-30T14:48:23.958Z,7.72
2023-01-30T14:50:50.464Z,10.05
2023-01-30T14:53:16.930Z,7.93
2023-01-30T14:55:43.326Z,8.75
2023-01-30T14:58:15.411Z,7.57
2023-01-30T15:00:41.824Z,8.50
2023-01-30T15:03:16.935Z,7.05
2023-01-30T15:05:44.645Z,7.57
2023-01-30T15:08:21.079Z,4.82
2023-01-30T15:10:50.333Z,12.70
2023-01-30T15:13:41.064Z,10.88
2023-01-30T15:16:19.786Z,11.95
2023-01-30T15:19:14.508Z,9.77
2023-01-30T15:24:21.555Z,6.32
2023-01-30T15:27:05.327Z,10.65
2023-01-30T15:29:41.420Z,6.32
2023-01-30T15:32:19.875Z,6.03
2023-01-30T15:34:56.671Z,8.57
2023-01-30T15:37:47.412Z,11.27
2023-01-30T15:40:18.025Z,13.05
2023-01-30T15:43:01.087Z,10.88
2023-01-30T15:45:56.597Z,12.80
2023-01-30T15:48:33.080Z,9.43
2023-01-30T15:51:00.330Z,12.90
2023-01-30T15:53:35.439Z,12.00
2023-01-30T15:56:04.017Z,11.82
2023-01-30T15:58:31.056Z,10.77
2023-01-30T16:00:59.564Z,7.78
2023-01-30T16:03:31.774Z,11.43
2023-01-30T16:05:58.470Z,9.93
2023-01-30T16:08:32.772Z,13.32
2023-01-30T16:11:00.652Z,10.02
2023-01-30T16:13:27.823Z,15.23
2023-01-30T16:16:02.751Z,21.77
2023-01-30T16:18:33.467Z,15.82
2023-01-30T16:21:03.395Z,14.13
2023-01-30T16:23:32.030Z,10.77
2023-01-30T16:25:59.013Z,14.07
2023-01-30T16:28:27.272Z,13.48
2023-01-30T16:30:58.269Z,13.55
2023-01-30T16:33:24.805Z,11.73
2023-01-30T16:35:51.129Z,14.88
2023-01-30T16:38:36.084Z,18.08
2023-01-30T16:41:03.438Z,17.58
2023-01-30T16:43:32.040Z,10.43
2023-01-30T16:46:46.636Z,7.85
2023-01-30T16:49:35.408Z,12.80
2023-01-30T16:52:21.619Z,12.90
2023-01-30T16:54:51.452Z,17.80
2023-01-30T16:57:27.177Z,13.27
2023-01-30T16:59:53.598Z,15.98
2023-01-30T17:02:25.801Z,13.50
2023-01-30T17:04:52.147Z,12.75
2023-01-30T17:07:34.458Z,24.60
2023-01-30T17:10:00.861Z,13.30
2023-01-30T17:12:27.209Z,10.85
2023-01-30T17:15:14.682Z,12.75
2023-01-30T17:17:41.296Z,12.77
2023-01-30T17:20:08.905Z,10.35
2023-01-30T17:22:35.557Z,14.65
2023-01-30T17:25:05.068Z,14.32
2023-01-30T17:27:31.567Z,14.00
2023-01-30T17:29:58.035Z,11.95
2023-01-30T17:32:24.508Z,11.80
2023-01-30T17:34:50.847Z,16.73
2023-01-30T17:37:22.962Z,18.70
2023-01-30T17:39:49.418Z,11.65
2023-01-30T17:42:18.521Z,15.18
2023-01-30T17:44:44.884Z,15.60
2023-01-30T17:47:11.734Z,12.75
2023-01-30T17:49:38.627Z,12.52
2023-01-30T17:52:05.287Z,13.95
2023-01-30T17:54:31.765Z,14.60
2023-01-30T17:57:03.552Z,16.23
2023-01-30T17:59:31.249Z,10.40
2023-01-30T18:01:57.912Z,11.52
2023-01-30T18:04:24.340Z,12.35
2023-01-30T18:06:53.352Z,15.00
2023-01-30T18:09:24.233Z,11.98
2023-01-30T18:11:50.821Z,12.82
2023-01-30T18:14:17.634Z,13.70
2023-01-30T18:16:44.246Z,14.50
2023-01-30T18:19:15.983Z,11.68
2023-01-30T18:21:45.413Z,15.05
2023-01-30T18:24:14.609Z,12.32
2023-01-30T18:26:41.755Z,12.48
2023-01-30T18:29:11.976Z,11.95
2023-01-30T18:31:39.090Z,11.82
2023-01-30T18:34:07.079Z,14.18
2023-01-30T18:36:35.031Z,13.02
2023-01-30T18:39:01.484Z,19.00
2023-01-30T18:41:28.617Z,13.18
2023-01-30T18:43:59.752Z,11.68
2023-01-30T18:46:27.023Z,13.93
2023-01-30T18:48:56.058Z,9.43
2023-01-30T18:51:25.368Z,18.15
2023-01-30T18:53:52.901Z,14.00
2023-01-30T18:56:31.293Z,10.52
2023-01-30T18:59:02.280Z,14.73
2023-01-30T19:01:30.208Z,7.38
2023-01-30T19:03:58.362Z,12.57
2023-01-30T19:06:25.727Z,16.77
2023-01-30T19:08:52.106Z,10.88
2023-01-30T19:11:39.316Z,15.45
2023-01-30T19:14:06.410Z,13.75
2023-01-30T19:16:34.408Z,17.30
2023-01-30T19:19:01.047Z,11.25
2023-01-30T19:21:27.899Z,15.13
2023-01-30T19:23:54.747Z,13.48
2023-01-30T19:26:22.479Z,13.45
2023-01-30T19:28:49.244Z,12.32
2023-01-30T19:31:17.845Z,12.75
2023-01-30T19:33:45.210Z,13.80
2023-01-30T19:36:19.660Z,15.07
2023-01-30T19:38:47.503Z,13.68
2023-01-30T19:41:25.063Z,13.35
2023-01-30T19:43:52.984Z,12.25
2023-01-30T19:46:19.838Z,12.70
2023-01-30T19:48:46.958Z,13.95
2023-01-30T19:51:20.299Z,12.02
2023-01-30T19:53:50.515Z,16.38
2023-01-30T19:56:18.576Z,19.52
2023-01-30T19:58:44.961Z,19.85
2023-01-30T20:01:14.460Z,12.93
2023-01-30T20:03:41.784Z,14.48
2023-01-30T20:06:10.989Z,13.80
2023-01-30T20:08:38.603Z,15.20
2023-01-30T20:11:07.121Z,13.70
2023-01-30T20:13:37.118Z,16.15
2023-01-30T20:16:06.496Z,11.07
2023-01-30T20:18:35.340Z,13.70
2023-01-30T20:21:12.972Z,17.08
2023-01-30T20:23:41.673Z,12.27
2023-01-30T20:26:19.051Z,15.05
2023-01-30T20:28:45.592Z,14.95
2023-01-30T20:31:14.434Z,9.10
2023-01-30T20:33:41.365Z,10.57
2023-01-30T20:36:10.656Z,16.33
2023-01-30T20:38:39.249Z,11.57
2023-01-30T20:41:16.684Z,16.58
2023-01-30T20:43:44.970Z,12.35
2023-01-30T20:46:16.758Z,17.40
2023-01-30T20:48:43.535Z,14.52
2023-01-30T20:51:12.361Z,18.30
2023-01-30T20:53:39.654Z,15.50
2023-01-30T20:56:06.837Z,15.75
2023-01-30T20:58:33.243Z,14.35
2023-01-30T21:01:10.570Z,18.73
2023-01-30T21:03:38.271Z,13.95
2023-01-30T21:06:05.352Z,17.33
2023-01-30T21:08:31.732Z,14.05
2023-01-30T21:11:13.178Z,16.88
2023-01-30T21:13:39.945Z,16.40
2023-01-30T21:16:23.783Z,12.45
2023-01-30T21:18:53.463Z,15.77
2023-01-30T21:21:33.055Z,17.73
2023-01-30T21:24:03.197Z,10.88
2023-01-30T21:26:32.160Z,16.13
2023-01-30T21:29:00.504Z,15.55
2023-01-30T21:31:29.086Z,14.93
2023-01-30T21:33:56.936Z,18.48
2023-01-30T21:36:23.540Z,12.80
2023-01-30T21:39:08.099Z,13.43
2023-01-30T21:41:55.686Z,14.82
2023-01-30T21:44:30.231Z,18.58
2023-01-30T21:46:56.921Z,13.60
2023-01-30T21:49:25.163Z,13.60
2023-01-30T21:51:52.015Z,15.07
2023-01-30T21:54:19.219Z,19.20
2023-01-30T21:56:45.923Z,11.57
2023-01-30T21:59:12.775Z,16.58
2023-01-30T22:01:40.091Z,14.00
2023-01-30T22:04:08.938Z,14.07
2023-01-30T22:06:37.624Z,15.43
2023-01-30T22:09:05.480Z,12.45
2023-01-30T22:11:31.894Z,11.40
2023-01-30T22:13:58.277Z,13.80
2023-01-30T22:16:26.868Z,11.38
2023-01-30T22:18:55.865Z,11.55
2023-01-30T22:21:24.003Z,10.88
2023-01-30T22:23:51.600Z,11.10
2023-01-30T22:26:19.412Z,21.63
2023-01-30T22:28:46.142Z,12.85
2023-01-30T22:31:14.719Z,17.30
2023-01-30T22:33:45.597Z,14.38
2023-01-30T22:36:12.612Z,16.85
2023-01-30T22:38:42.811Z,13.35
2023-01-30T22:41:15.540Z,11.45
2023-01-30T22:43:50.484Z,11.27
2023-01-30T22:46:18.101Z,11.13
2023-01-30T22:48:45.169Z,8.88
2023-01-30T22:51:16.778Z,16.35
2023-01-30T22:53:48.806Z,13.63
2023-01-30T22:56:17.476Z,8.32
2023-01-30T22:58:44.878Z,9.90
2023-01-30T23:01:17.813Z,15.93
2023-01-30T23:03:44.964Z,12.65
2023-01-30T23:06:13.997Z,11.93
2023-01-30T23:08:43.825Z,14.80
2023-01-30T23:11:33.012Z,7.97
2023-01-30T23:14:11.891Z,11.45
2023-01-30T23:16:39.913Z,10.45
2023-01-30T23:19:07.764Z,13.73
2023-01-30T23:21:42.351Z,9.25
2023-01-30T23:24:13.764Z,10.18
2023-01-30T23:26:43.947Z,17.80
2023-01-30T23:29:15.491Z,11.05
2023-01-30T23:31:42.984Z,9.35
2023-01-30T23:34:14.525Z,13.07
2023-01-30T23:36:41.032Z,17.73
2023-01-30T23:39:07.633Z,21.50
2023-01-30T23:41:35.396Z,9.02
2023-01-30T23:44:01.996Z,12.15
2023-01-30T23:46:31.378Z,12.20
2023-01-30T23:49:00.675Z,14.70
2023-01-30T23:51:29.726Z,14.38
2023-01-30T23:53:56.512Z,13.20
2023-01-30T23:56:24.289Z,10.98
2023-01-30T23:58:51.039Z,16.23
